Time;durP1;ratioP1;P1;durP2;ratioP2;P2;SDS_P1;SDS_P2;PMS_P1;PMS_P2;Temp;Humidity;BMP_temperature;BMP_pressure;BME280_temperature;BME280_humidity;BME280_pressure;Samples;Min_cycle;Max_cycle;Signal;HPM_P1;HPM_P2
2021/11/19 00:00:59;;;;;;;26.17;14.80;;;;;;;10.16;100.00;101542.38;5209087;28;20109;-80
2021/11/19 00:03:29;;;;;;;24.83;14.35;;;;;;;10.19;100.00;101534.50;5203660;28;20037;-80
2021/11/19 00:05:59;;;;;;;27.30;14.73;;;;;;;10.09;100.00;101540.75;5207447;28;20039;-80
2021/11/19 00:08:30;;;;;;;26.65;15.32;;;;;;;10.15;100.00;101544.13;5204364;28;20026;-80
2021/11/19 00:11:05;;;;;;;25.85;14.60;;;;;;;10.10;100.00;101548.59;5207388;28;20326;-80
2021/11/19 00:13:35;;;;;;;29.13;16.23;;;;;;;10.11;100.00;101538.97;5204572;28;20561;-80
2021/11/19 00:16:07;;;;;;;25.05;14.98;;;;;;;10.08;100.00;101554.72;5204933;28;20022;-80
2021/11/19 00:18:37;;;;;;;27.50;14.80;;;;;;;10.12;100.00;101541.56;5202090;28;20083;-80
2021/11/19 00:21:08;;;;;;;25.25;14.95;;;;;;;10.01;100.00;101534.78;5207516;28;20037;-80
2021/11/19 00:23:40;;;;;;;23.95;15.07;;;;;;;10.11;100.00;101549.41;5205505;28;20026;-80
2021/11/19 00:26:11;;;;;;;24.58;14.82;;;;;;;10.16;100.00;101545.00;5204721;28;20036;-80
2021/11/19 00:28:43;;;;;;;25.08;14.75;;;;;;;10.11;100.00;101541.59;5195121;28;20026;-80
2021/11/19 00:31:15;;;;;;;23.90;14.38;;;;;;;10.12;100.00;101543.31;5205838;28;20185;-80
2021/11/19 00:33:45;;;;;;;24.73;14.73;;;;;;;10.10;100.00;101539.88;5204430;28;20040;-80
2021/11/19 00:36:19;;;;;;;23.63;15.05;;;;;;;10.15;100.00;101549.34;5203515;28;20021;-80
2021/11/19 00:38:52;;;;;;;26.33;15.18;;;;;;;10.22;100.00;101544.88;5204892;28;20032;-80
2021/11/19 00:41:22;;;;;;;22.55;13.63;;;;;;;10.13;100.00;101556.34;5204773;28;20091;-80
2021/11/19 00:43:53;;;;;;;23.23;14.38;;;;;;;10.11;100.00;101554.66;5207351;28;20430;-80
2021/11/19 00:46:24;;;;;;;25.27;14.38;;;;;;;10.14;100.00;101552.84;5206152;28;20540;-80
2021/11/19 00:48:54;;;;;;;26.15;16.02;;;;;;;10.19;100.00;101561.47;5203658;28;20021;-80
2021/11/19 00:51:30;;;;;;;26.58;14.85;;;;;;;10.14;100.00;101567.69;5204840;28;20037;-80
2021/11/19 00:54:02;;;;;;;25.98;14.32;;;;;;;10.23;100.00;101563.16;5199817;28;20037;-80
2021/11/19 00:56:39;;;;;;;24.65;14.10;;;;;;;10.25;100.00;101561.38;5203388;28;20036;-80
2021/11/19 00:59:11;;;;;;;23.92;14.77;;;;;;;10.24;100.00;101559.66;5196697;28;20025;-80
2021/11/19 01:01:48;;;;;;;24.05;15.13;;;;;;;10.26;100.00;101559.59;5200686;28;20048;-80
2021/11/19 01:04:19;;;;;;;26.98;13.95;;;;;;;10.32;100.00;101556.91;5202459;28;20022;-80
2021/11/19 01:06:50;;;;;;;24.38;14.60;;;;;;;10.30;100.00;101563.88;5204215;28;20562;-80
2021/11/19 01:09:30;;;;;;;20.33;11.88;;;;;;;10.33;100.00;101564.69;5205302;28;20021;-80
2021/11/19 01:12:03;;;;;;;27.00;13.98;;;;;;;10.28;100.00;101565.66;5199887;28;20217;-80
2021/11/19 01:14:42;;;;;;;25.00;13.68;;;;;;;10.31;100.00;101568.22;5189426;28;20030;-80
2021/11/19 01:17:19;;;;;;;23.40;12.32;;;;;;;10.25;100.00;101566.59;5195008;28;20026;-80
2021/11/19 01:20:13;;;;;;;24.60;12.80;;;;;;;10.39;100.00;101574.16;5199853;28;20034;-80
2021/11/19 01:22:46;;;;;;;21.80;13.00;;;;;;;10.39;100.00;101571.56;5202458;28;20025;-80
2021/11/19 01:25:20;;;;;;;22.55;12.75;;;;;;;10.40;100.00;101570.66;5205233;28;20388;-80
2021/11/19 01:27:51;;;;;;;20.67;12.82;;;;;;;10.39;100.00;101571.56;5195212;28;20513;-80
2021/11/19 01:30:33;;;;;;;20.65;11.77;;;;;;;10.45;100.00;101574.03;5200751;28;20116;-80
2021/11/19 01:33:04;;;;;;;22.85;13.00;;;;;;;10.44;100.00;101578.41;5199015;28;20053;-80
2021/11/19 01:35:35;;;;;;;22.83;13.00;;;;;;;10.46;100.00;101571.41;5206406;28;20045;-80
2021/11/19 01:38:06;;;;;;;23.25;12.88;;;;;;;10.44;100.00;101578.41;5204489;28;20075;-80
2021/11/19 01:40:43;;;;;;;20.33;13.02;;;;;;;10.36;100.00;101579.44;5204943;28;20025;-80
2021/11/19 01:43:16;;;;;;;21.10;13.13;;;;;;;10.41;100.00;101578.47;5205137;28;20018;-80
2021/11/19 01:45:50;;;;;;;22.98;12.50;;;;;;;10.42;100.00;101584.56;5204609;28;20056;-80
2021/11/19 01:48:25;;;;;;;21.20;13.23;;;;;;;10.40;100.00;101589.81;5201904;28;20021;-80
2021/11/19 01:50:55;;;;;;;21.90;13.35;;;;;;;10.41;100.00;101588.06;5206087;28;20116;-81
2021/11/19 01:53:39;;;;;;;25.13;13.70;;;;;;;10.38;100.00;101577.66;5202211;28;20045;-80
2021/11/19 01:56:20;;;;;;;26.05;14.38;;;;;;;10.42;100.00;101589.78;5198808;28;20291;-80
2021/11/19 01:58:55;;;;;;;22.15;14.10;;;;;;;10.36;100.00;101592.53;5203428;28;20033;-80
2021/11/19 02:01:33;;;;;;;24.02;14.30;;;;;;;10.36;100.00;101592.53;5202662;28;20459;-80
2021/11/19 02:04:09;;;;;;;24.67;14.93;;;;;;;10.30;100.00;101596.09;5198724;28;20030;-80
2021/11/19 02:06:50;;;;;;;25.05;14.60;;;;;;;10.34;100.00;101589.91;5205208;28;20347;-80
2021/11/19 02:09:41;;;;;;;23.00;14.15;;;;;;;10.38;100.00;101595.97;5205191;28;20033;-80
2021/11/19 02:12:30;;;;;;;21.98;13.27;;;;;;;10.32;100.00;101588.25;5197221;28;20056;-80
2021/11/19 02:15:17;;;;;;;25.17;14.82;;;;;;;10.31;100.00;101600.44;5193707;28;20381;-80
2021/11/19 02:17:54;;;;;;;20.75;13.85;;;;;;;10.29;100.00;101596.09;5200167;28;20063;-80
2021/11/19 02:20:31;;;;;;;23.08;15.15;;;;;;;10.29;100.00;101585.66;5203404;28;20057;-80
2021/11/19 02:23:09;;;;;;;30.92;14.38;;;;;;;10.33;100.00;101596.03;5198513;28;20057;-80
2021/11/19 02:25:43;;;;;;;26.45;14.43;;;;;;;10.32;100.00;101590.84;5204756;28;20033;-80
2021/11/19 02:28:19;;;;;;;21.77;14.10;;;;;;;10.31;100.00;101586.53;5197774;28;20026;-80
2021/11/19 02:31:04;;;;;;;23.20;14.35;;;;;;;10.42;100.00;101587.16;5206155;28;20719;-80
2021/11/19 02:33:35;;;;;;;26.63;14.52;;;;;;;10.41;100.00;101582.84;5199796;28;20033;-80
2021/11/19 02:36:10;;;;;;;21.83;13.85;;;;;;;10.41;100.00;101588.06;5205522;28;20022;-80
2021/11/19 02:38:52;;;;;;;24.33;14.27;;;;;;;10.36;100.00;101582.06;5204298;28;20130;-80
2021/11/19 02:41:27;;;;;;;21.73;12.82;;;;;;;10.41;100.00;101577.59;5203946;28;20033;-80
2021/11/19 02:44:06;;;;;;;24.13;13.53;;;;;;;10.32;100.00;101577.78;5205835;28;20341;-80
2021/11/19 02:46:40;;;;;;;27.70;13.98;;;;;;;10.39;100.00;101584.63;5198361;28;20615;-80
2021/11/19 02:49:11;;;;;;;22.45;13.40;;;;;;;10.47;100.00;101577.47;5199140;28;20122;-80
2021/11/19 02:51:41;;;;;;;23.67;13.55;;;;;;;10.46;100.00;101573.16;5203335;28;20030;-80
2021/11/19 02:54:16;;;;;;;21.70;13.52;;;;;;;10.41;100.00;101564.53;5205265;28;20491;-80
2021/11/19 02:56:47;;;;;;;22.88;14.70;;;;;;;10.43;100.00;101568.84;5198675;28;20021;-80
2021/11/19 02:59:20;;;;;;;23.45;14.00;;;;;;;10.37;100.00;101568.94;5194523;28;20026;-80
2021/11/19 03:02:03;;;;;;;22.13;13.85;;;;;;;10.43;100.00;101570.59;5199166;28;20033;-80
2021/11/19 03:04:44;;;;;;;22.50;13.35;;;;;;;10.45;100.00;101566.19;5204250;28;20205;-80
2021/11/19 03:07:15;;;;;;;23.70;13.95;;;;;;;10.46;100.00;101570.53;5207392;28;20030;-80
2021/11/19 03:09:49;;;;;;;23.13;13.55;;;;;;;10.46;100.00;101571.41;5207818;28;20060;-80
2021/11/19 03:12:22;;;;;;;21.80;14.15;;;;;;;10.42;100.00;101563.66;5206189;28;20037;-80
2021/11/19 03:14:55;;;;;;;23.50;13.57;;;;;;;10.46;100.00;101571.41;5199387;28;20029;-80
2021/11/19 03:17:27;;;;;;;22.92;11.63;;;;;;;10.49;100.00;101565.28;5203739;28;20025;-80
2021/11/19 03:19:58;;;;;;;21.50;13.07;;;;;;;10.46;100.00;101565.31;5207773;28;20053;-80
2021/11/19 03:22:28;;;;;;;20.88;13.18;;;;;;;10.42;100.00;101566.25;5204739;28;20041;-80
2021/11/19 03:24:59;;;;;;;21.45;13.02;;;;;;;10.43;100.00;101565.38;5208393;28;20021;-80
2021/11/19 03:27:30;;;;;;;19.27;12.48;;;;;;;10.45;100.00;101568.81;5194883;28;20114;-80
2021/11/19 03:30:00;;;;;;;18.55;12.10;;;;;;;10.45;100.00;101558.34;5200804;28;20050;-80
2021/11/19 03:32:31;;;;;;;18.98;11.07;;;;;;;10.47;100.00;101567.91;5209113;28;20037;-80
2021/11/19 03:35:03;;;;;;;21.02;12.10;;;;;;;10.51;100.00;101559.09;5205960;28;20032;-80
2021/11/19 03:37:34;;;;;;;17.33;11.13;;;;;;;10.55;100.00;101559.91;5209337;28;20029;-80
2021/11/19 03:40:05;;;;;;;16.30;10.52;;;;;;;10.56;100.00;101561.63;5205686;28;20033;-80
2021/11/19 03:42:35;;;;;;;15.43;10.95;;;;;;;10.58;100.00;101563.34;5208774;28;20026;-80
2021/11/19 03:45:09;;;;;;;16.00;10.07;;;;;;;10.57;100.00;101563.34;5205605;28;20037;-80
2021/11/19 03:47:42;;;;;;;16.77;10.40;;;;;;;10.61;100.00;101565.88;5206034;28;20109;-80
2021/11/19 03:50:24;;;;;;;16.52;9.80;;;;;;;10.70;100.00;101564.84;5206764;28;20025;-80
2021/11/19 03:52:55;;;;;;;14.88;9.65;;;;;;;10.70;100.00;101564.84;5212054;28;20076;-80
2021/11/19 03:55:30;;;;;;;15.10;9.77;;;;;;;10.71;100.00;101561.31;5207357;28;20088;-80
2021/11/19 03:58:02;;;;;;;16.23;9.88;;;;;;;10.67;100.00;101560.53;5198127;28;20261;-80
2021/11/19 04:00:40;;;;;;;15.30;9.80;;;;;;;10.75;100.00;101558.63;5207076;28;20060;-80
2021/11/19 04:03:12;;;;;;;14.48;9.40;;;;;;;10.67;100.00;101559.69;5208997;28;20555;-80
2021/11/19 04:05:44;;;;;;;15.60;9.98;;;;;;;10.64;100.00;101560.59;5209391;28;20455;-80
2021/11/19 04:08:15;;;;;;;15.00;10.02;;;;;;;10.61;100.00;101565.00;5210236;28;20094;-80
2021/11/19 04:10:47;;;;;;;15.13;9.73;;;;;;;10.71;100.00;101563.94;5207939;28;20029;-80
2021/11/19 04:13:18;;;;;;;14.88;9.60;;;;;;;10.63;100.00;101558.88;5210080;28;20041;-80
2021/11/19 04:15:54;;;;;;;15.95;9.52;;;;;;;10.62;100.00;101564.13;5206831;28;20061;-80
2021/11/19 04:18:25;;;;;;;17.65;10.32;;;;;;;10.61;100.00;101565.00;5207399;28;20388;-81
2021/11/19 04:20:56;;;;;;;15.82;10.10;;;;;;;10.62;100.00;101564.13;5210889;28;20234;-80
2021/11/19 04:23:27;;;;;;;18.27;10.80;;;;;;;10.62;100.00;101566.72;5208373;28;20034;-80
2021/11/19 04:26:00;;;;;;;15.32;9.60;;;;;;;10.61;100.00;101565.00;5207945;28;20039;-80
2021/11/19 04:28:30;;;;;;;17.52;9.57;;;;;;;10.69;100.00;101568.34;5198248;28;20042;-80
2021/11/19 04:31:02;;;;;;;14.88;9.50;;;;;;;10.68;100.00;101562.25;5206657;28;20107;-80
2021/11/19 04:33:33;;;;;;;14.23;9.70;;;;;;;10.69;100.00;101563.13;5210272;28;20041;-80
2021/11/19 04:36:05;;;;;;;17.00;10.48;;;;;;;10.66;100.00;101568.41;5207257;28;20030;-80
2021/11/19 04:38:36;;;;;;;17.35;9.63;;;;;;;10.73;100.00;101565.66;5208527;28;20033;-80
2021/11/19 04:41:06;;;;;;;14.63;9.27;;;;;;;10.68;100.00;101566.63;5207417;28;20028;-80
2021/11/19 04:43:37;;;;;;;17.52;9.98;;;;;;;10.70;100.00;101570.91;5210090;28;20033;-80
2021/11/19 04:46:08;;;;;;;17.33;9.57;;;;;;;10.68;100.00;101571.84;5206930;28;20014;-80
2021/11/19 04:48:39;;;;;;;14.45;9.55;;;;;;;10.66;100.00;101571.88;5204753;28;20044;-80
2021/11/19 04:51:14;;;;;;;15.65;10.15;;;;;;;10.65;100.00;101572.75;5207627;28;20042;-80
2021/11/19 04:53:45;;;;;;;17.40;10.33;;;;;;;10.68;100.00;101566.63;5208155;28;20504;-80
2021/11/19 04:56:17;;;;;;;15.50;9.80;;;;;;;10.68;100.00;101567.47;5205716;28;20029;-80
2021/11/19 04:58:48;;;;;;;21.30;9.85;;;;;;;10.67;100.00;101570.13;5196192;28;20050;-81
2021/11/19 05:01:22;;;;;;;18.63;9.52;;;;;;;10.67;100.00;101564.91;5200017;28;20049;-80
2021/11/19 05:03:53;;;;;;;15.48;9.27;;;;;;;10.67;100.00;101570.13;5204993;28;20029;-80
2021/11/19 05:06:23;;;;;;;16.30;9.25;;;;;;;10.64;100.00;101567.56;5209492;28;20037;-80
2021/11/19 05:08:54;;;;;;;16.98;10.15;;;;;;;10.63;100.00;101573.69;5208286;28;20030;-80
2021/11/19 05:11:33;;;;;;;19.60;9.82;;;;;;;10.62;100.00;101582.41;5208624;28;20025;-80
2021/11/19 05:14:04;;;;;;;16.33;9.88;;;;;;;10.56;100.00;101572.09;5206507;28;20048;-80
2021/11/19 05:16:35;;;;;;;16.33;10.18;;;;;;;10.60;100.00;101568.50;5205406;28;20053;-80
2021/11/19 05:19:05;;;;;;;16.85;11.20;;;;;;;10.56;100.00;101567.75;5205910;28;20021;-80
2021/11/19 05:21:36;;;;;;;16.08;10.43;;;;;;;10.58;100.00;101570.31;5206404;28;20029;-80
2021/11/19 05:24:08;;;;;;;16.52;9.70;;;;;;;10.61;100.00;101567.63;5207172;28;20036;-80
2021/11/19 05:26:41;;;;;;;15.25;9.68;;;;;;;10.62;100.00;101572.84;5203267;28;20017;-80
2021/11/19 05:29:12;;;;;;;16.67;10.00;;;;;;;10.58;100.00;101565.06;5202796;28;20534;-80
2021/11/19 05:31:43;;;;;;;13.63;9.38;;;;;;;10.53;100.00;101572.16;5206893;28;20033;-80
2021/11/19 05:34:15;;;;;;;14.43;9.85;;;;;;;10.57;100.00;101569.47;5208003;28;20029;-80
2021/11/19 05:36:46;;;;;;;16.13;10.38;;;;;;;10.55;100.00;101573.81;5209922;22;20578;-79
2021/11/19 05:39:17;;;;;;;17.92;10.13;;;;;;;10.60;100.00;101573.75;5194006;28;20093;-79
2021/11/19 05:41:48;;;;;;;17.35;10.43;;;;;;;10.61;100.00;101567.63;5194964;28;20451;-79
2021/11/19 05:44:18;;;;;;;19.83;10.35;;;;;;;10.54;100.00;101568.66;5189336;28;20025;-79
2021/11/19 05:46:50;;;;;;;16.15;10.50;;;;;;;10.57;100.00;101576.41;5186206;28;20040;-79
2021/11/19 05:49:22;;;;;;;16.55;10.63;;;;;;;10.53;100.00;101582.59;5189754;28;20049;-79
2021/11/19 05:51:55;;;;;;;17.15;10.35;;;;;;;10.59;100.00;101578.13;5190293;28;20026;-77
2021/11/19 05:54:29;;;;;;;16.30;10.13;;;;;;;10.63;100.00;101581.50;5185050;28;20039;-77
2021/11/19 05:57:00;;;;;;;18.65;10.50;;;;;;;10.59;100.00;101585.97;5185852;28;20056;-77
2021/11/19 05:59:30;;;;;;;15.40;10.02;;;;;;;10.66;100.00;101581.47;5183590;28;20175;-77
2021/11/19 06:02:06;;;;;;;18.23;10.50;;;;;;;10.62;100.00;101582.41;5188224;28;20104;-77
2021/11/19 06:04:37;;;;;;;16.60;10.57;;;;;;;10.67;100.00;101591.06;5191374;28;20037;-77
2021/11/19 06:07:07;;;;;;;15.93;10.25;;;;;;;10.58;100.00;101586.88;5184023;28;20025;-77
2021/11/19 06:09:40;;;;;;;17.83;11.05;;;;;;;10.53;100.00;101593.06;5187325;28;20033;-77
2021/11/19 06:12:16;;;;;;;19.17;10.98;;;;;;;10.54;100.00;101584.34;5190524;28;20083;-77
2021/11/19 06:14:50;;;;;;;22.40;12.48;;;;;;;10.57;100.00;101585.13;5187483;28;20043;-77
2021/11/19 06:17:34;;;;;;;19.40;12.27;;;;;;;10.58;100.00;101583.38;5186643;28;20523;-77
2021/11/19 06:20:27;;;;;;;17.33;11.23;;;;;;;10.65;100.00;101587.59;5183685;28;20033;-77
2021/11/19 06:23:02;;;;;;;18.33;11.10;;;;;;;10.56;100.00;101593.88;5187277;28;20324;-76
2021/11/19 06:25:35;;;;;;;20.17;11.73;;;;;;;10.59;100.00;101587.69;5184503;28;20053;-76
2021/11/19 06:28:07;;;;;;;21.00;12.02;;;;;;;10.58;100.00;101597.31;5179921;28;20468;-76
2021/11/19 06:30:37;;;;;;;20.63;12.13;;;;;;;10.59;100.00;101606.00;5184310;28;20029;-76
2021/11/19 06:33:08;;;;;;;22.10;12.45;;;;;;;10.63;100.00;101602.44;5189260;28;20072;-77
2021/11/19 06:35:40;;;;;;;19.80;11.68;;;;;;;10.63;100.00;101597.19;5191035;28;20106;-76
2021/11/19 06:38:10;;;;;;;21.60;12.52;;;;;;;10.74;100.00;101611.81;5192334;28;20132;-76
2021/11/19 06:40:40;;;;;;;20.00;11.05;;;;;;;10.71;100.00;101608.38;5192977;28;20116;-76
2021/11/19 06:43:11;;;;;;;19.30;11.30;;;;;;;10.69;100.00;101621.47;5192497;28;20486;-76
2021/11/19 06:45:41;;;;;;;20.00;11.73;;;;;;;10.67;100.00;101617.19;5193000;28;20121;-76
2021/11/19 06:48:11;;;;;;;19.60;11.68;;;;;;;10.62;100.00;101612.03;5190530;28;20076;-76
2021/11/19 06:50:44;;;;;;;22.95;13.00;;;;;;;10.73;100.00;101619.69;5193594;28;20084;-76
2021/11/19 06:53:14;;;;;;;19.95;11.82;;;;;;;10.62;100.00;101624.25;5189954;28;20498;-76
2021/11/19 06:55:45;;;;;;;20.75;12.63;;;;;;;10.73;100.00;101606.59;5193783;28;20029;-76
2021/11/19 06:58:16;;;;;;;21.33;12.23;;;;;;;10.62;100.00;101625.13;5186440;28;20076;-76
2021/11/19 07:00:46;;;;;;;21.25;12.45;;;;;;;10.64;100.00;101627.69;5183660;28;20065;-76
2021/11/19 07:03:17;;;;;;;22.88;12.35;;;;;;;10.67;100.00;101623.25;5188977;28;20028;-76
2021/11/19 07:05:48;;;;;;;18.55;11.38;;;;;;;10.68;100.00;101618.91;5193671;28;20025;-76
2021/11/19 07:08:19;;;;;;;19.73;11.43;;;;;;;10.75;100.00;101630.97;5193431;28;20365;-76
2021/11/19 07:10:54;;;;;;;23.63;11.45;;;;;;;10.72;100.00;101631.03;5194161;28;20446;-76
2021/11/19 07:13:25;;;;;;;21.87;12.10;;;;;;;10.69;100.00;101626.72;5191930;28;20308;-76
2021/11/19 07:15:56;;;;;;;20.60;12.05;;;;;;;10.66;100.00;101625.94;5193099;28;20825;-76
2021/11/19 07:18:27;;;;;;;22.25;11.90;;;;;;;10.69;100.00;101634.56;5190150;28;20072;-76
2021/11/19 07:20:58;;;;;;;19.83;11.48;;;;;;;10.67;100.00;101636.34;5195310;28;20048;-76
2021/11/19 07:23:28;;;;;;;22.20;12.55;;;;;;;10.78;100.00;101633.50;5191314;28;20104;-76
2021/11/19 07:25:58;;;;;;;20.20;12.50;;;;;;;10.67;100.00;101633.72;5195293;28;20018;-76
2021/11/19 07:28:29;;;;;;;21.20;12.07;;;;;;;10.70;100.00;101623.19;5183777;28;20129;-76
2021/11/19 07:31:09;;;;;;;21.95;12.65;;;;;;;10.69;100.00;101638.94;5186083;28;20026;-76
2021/11/19 07:33:39;;;;;;;21.50;12.55;;;;;;;10.69;100.00;101641.56;5193857;28;20056;-76
2021/11/19 07:36:11;;;;;;;21.55;12.57;;;;;;;10.67;100.00;101635.50;5190585;28;20076;-76
2021/11/19 07:38:42;;;;;;;24.85;12.80;;;;;;;10.65;100.00;101634.66;5192818;28;20036;-76
2021/11/19 07:41:15;;;;;;;21.35;11.45;;;;;;;10.67;100.00;101633.72;5192544;28;20484;-76
2021/11/19 07:43:45;;;;;;;23.73;12.82;;;;;;;10.72;100.00;101636.25;5190706;28;20032;-76
2021/11/19 07:46:21;;;;;;;19.95;11.60;;;;;;;10.78;100.00;101636.13;5188263;28;20026;-76
2021/11/19 07:48:52;;;;;;;20.48;11.57;;;;;;;10.82;100.00;101640.44;5186805;28;20088;-76
2021/11/19 07:51:26;;;;;;;20.17;11.48;;;;;;;10.82;100.00;101638.66;5188525;28;20033;-76
2021/11/19 07:53:56;;;;;;;20.27;11.48;;;;;;;10.93;100.00;101646.28;5184881;28;20461;-76
2021/11/19 07:56:30;;;;;;;18.67;10.57;;;;;;;10.87;100.00;101647.28;5188023;28;20113;-76
2021/11/19 07:59:08;;;;;;;17.58;10.43;;;;;;;10.92;100.00;101644.56;5180925;28;20029;-76
2021/11/19 08:01:40;;;;;;;16.52;9.80;;;;;;;10.86;100.00;101644.69;5190486;28;20037;-76
2021/11/19 08:04:11;;;;;;;16.42;9.55;;;;;;;10.87;100.00;101647.28;5192057;28;20029;-76
2021/11/19 08:06:41;;;;;;;16.65;9.68;;;;;;;10.92;100.00;101649.81;5193297;28;20032;-76
2021/11/19 08:09:13;;;;;;;14.18;8.52;;;;;;;10.98;100.00;101652.28;5192378;28;20161;-76
2021/11/19 08:11:43;;;;;;;13.73;8.02;;;;;;;10.98;100.00;101649.66;5192823;28;20025;-76
2021/11/19 08:14:14;;;;;;;12.43;7.78;;;;;;;10.98;100.00;101660.13;5192107;28;20345;-76
2021/11/19 08:17:00;;;;;;;11.65;7.53;;;;;;;10.95;100.00;101655.84;5190493;28;20044;-76
2021/11/19 08:19:34;;;;;;;10.77;7.50;;;;;;;10.97;100.00;101661.03;5185019;28;20128;-76
2021/11/19 08:22:05;;;;;;;10.97;6.97;;;;;;;10.99;100.00;101651.41;5191615;28;20029;-76
2021/11/19 08:24:35;;;;;;;10.93;6.85;;;;;;;11.01;100.00;101657.47;5192438;28;20037;-76
2021/11/19 08:27:12;;;;;;;8.98;6.45;;;;;;;11.09;100.00;101659.91;5190334;28;20612;-76
2021/11/19 08:29:46;;;;;;;9.60;6.20;;;;;;;11.09;100.00;101652.03;5187191;28;20022;-76
2021/11/19 08:32:18;;;;;;;9.80;6.43;;;;;;;10.99;100.00;101660.13;5191438;28;20033;-76
2021/11/19 08:34:49;;;;;;;9.13;5.82;;;;;;;11.03;100.00;101665.25;5192084;28;20364;-76
2021/11/19 08:37:21;;;;;;;9.93;5.60;;;;;;;11.09;100.00;101665.13;5191401;28;20164;-75
2021/11/19 08:39:52;;;;;;;7.93;5.65;;;;;;;11.03;100.00;101673.09;5191569;28;20132;-76
2021/11/19 08:42:23;;;;;;;9.05;5.72;;;;;;;11.17;100.00;101664.97;5193318;28;20483;-76
2021/11/19 08:44:53;;;;;;;10.45;5.20;;;;;;;11.10;100.00;101671.22;5189141;28;20032;-76
2021/11/19 08:47:24;;;;;;;7.53;5.18;;;;;;;11.09;100.00;101674.75;5182393;28;20060;-76
2021/11/19 08:49:55;;;;;;;7.75;4.88;;;;;;;11.16;100.00;101669.34;5185315;28;20029;-76
2021/11/19 08:52:26;;;;;;;7.20;5.20;;;;;;;11.20;100.00;101671.00;5193218;28;20048;-76
2021/11/19 08:54:56;;;;;;;6.25;4.85;;;;;;;11.31;100.00;101671.63;5189826;28;20041;-76
2021/11/19 08:57:27;;;;;;;5.78;4.10;;;;;;;11.33;100.00;101669.88;5190103;28;20029;-76
2021/11/19 08:59:57;;;;;;;6.13;4.20;;;;;;;11.30;100.00;101676.91;5186163;28;20077;-76
2021/11/19 09:02:28;;;;;;;6.10;4.38;;;;;;;11.30;100.00;101664.69;5187735;28;20029;-76
2021/11/19 09:04:58;;;;;;;6.97;4.55;;;;;;;11.40;100.00;101668.84;5189701;28;20394;-76
2021/11/19 09:07:32;;;;;;;6.15;3.85;;;;;;;11.50;100.00;101666.88;5189562;28;20495;-76
2021/11/19 09:10:07;;;;;;;4.72;3.40;;;;;;;11.37;100.00;101663.66;5186105;28;20036;-76
2021/11/19 09:12:38;;;;;;;5.10;3.42;;;;;;;11.43;100.00;101666.16;5191894;28;20040;-76
2021/11/19 09:15:11;;;;;;;5.22;3.55;;;;;;;11.44;100.00;101667.88;5189916;28;20037;-76
2021/11/19 09:18:06;;;;;;;5.95;3.22;;;;;;;11.43;100.00;101666.16;5188388;28;20379;-76
2021/11/19 09:20:58;;;;;;;5.22;3.55;;;;;;;11.45;100.00;101669.59;5188712;28;20041;-76
2021/11/19 09:23:33;;;;;;;5.55;3.28;;;;;;;11.44;100.00;101672.25;5191392;28;20033;-76
2021/11/19 09:26:11;;;;;;;5.75;3.80;;;;;;;11.48;100.00;101674.75;5186278;28;20022;-76
2021/11/19 09:28:45;;;;;;;5.05;3.45;;;;;;;11.45;100.00;101672.19;5182817;28;20365;-76
2021/11/19 09:31:19;;;;;;;4.32;3.50;;;;;;;11.52;100.00;101665.97;5184803;28;20328;-76
2021/11/19 09:33:50;;;;;;;5.20;3.67;;;;;;;11.49;100.00;101666.03;5189857;28;20042;-76
2021/11/19 09:36:21;;;;;;;6.25;4.05;;;;;;;11.48;100.00;101666.06;5190394;28;20400;-76
2021/11/19 09:38:51;;;;;;;5.90;4.07;;;;;;;11.44;100.00;101667.88;5189549;28;20037;-75
2021/11/19 09:41:42;;;;;;;7.40;4.13;;;;;;;11.51;100.00;101674.72;5192028;28;20079;-76
2021/11/19 09:44:43;;;;;;;6.43;3.88;;;;;;;11.50;100.00;101667.75;5187624;28;20026;-76
2021/11/19 09:47:41;;;;;;;7.72;4.22;;;;;;;11.49;100.00;101676.50;5182295;28;20112;-76
2021/11/19 09:50:49;;;;;;;7.97;4.30;;;;;;;11.56;100.00;101669.38;5189936;28;20082;-76
2021/11/19 09:53:44;;;;;;;6.72;4.20;;;;;;;11.66;100.00;101678.78;5189774;28;20044;-76
2021/11/19 09:56:21;;;;;;;6.25;4.68;;;;;;;11.63;100.00;101678.84;5186932;28;20030;-76
2021/11/19 09:59:21;;;;;;;6.72;4.85;;;;;;;11.69;100.00;101682.19;5177785;28;20211;-76
2021/11/19 10:01:52;;;;;;;7.25;4.80;;;;;;;11.70;100.00;101676.06;5185015;28;20029;-76
2021/11/19 10:04:46;;;;;;;7.75;5.38;;;;;;;11.67;100.00;101685.72;5180073;28;20033;-76
2021/11/19 10:07:23;;;;;;;10.05;4.97;;;;;;;11.65;100.00;101680.50;5181078;28;20097;-76
2021/11/19 10:10:17;;;;;;;7.22;4.97;;;;;;;11.60;100.00;101676.31;5177267;28;20025;-76
2021/11/19 10:13:18;;;;;;;6.90;5.15;;;;;;;11.66;100.00;101674.41;5179033;28;20434;-76
2021/11/19 10:16:10;;;;;;;10.55;5.93;;;;;;;11.65;100.00;101672.66;5184388;28;20025;-76
2021/11/19 10:18:51;;;;;;;8.25;5.85;;;;;;;11.71;100.00;101672.53;5183427;28;20053;-76
2021/11/19 10:21:32;;;;;;;8.25;6.10;;;;;;;11.76;100.00;101662.81;5187925;28;20037;-76
2021/11/19 10:24:26;;;;;;;10.05;6.30;;;;;;;11.80;100.00;101661.00;5183163;28;20388;-76
2021/11/19 10:26:56;;;;;;;8.43;6.43;;;;;;;11.80;100.00;101664.44;5188362;28;20087;-76
2021/11/19 10:29:31;;;;;;;8.90;6.28;;;;;;;11.89;100.00;101658.13;5177919;28;20025;-76
2021/11/19 10:32:03;;;;;;;10.87;6.57;;;;;;;11.82;100.00;101664.44;5184672;28;20057;-76
2021/11/19 10:35:03;;;;;;;10.00;6.47;;;;;;;11.90;100.00;101647.63;5190799;28;20087;-76
2021/11/19 10:38:11;;;;;;;10.05;6.60;;;;;;;12.00;100.00;101649.16;5187257;28;20029;-78
2021/11/19 10:41:01;;;;;;;10.73;6.47;;;;;;;12.15;100.00;101658.38;5185163;28;20464;-78
2021/11/19 10:43:50;;;;;;;9.90;7.43;;;;;;;12.20;100.00;101644.28;5182694;28;20041;-78
2021/11/19 10:46:31;;;;;;;10.43;7.30;;;;;;;12.11;100.00;101647.13;5181532;28;20026;-76
2021/11/19 10:49:22;;;;;;;12.00;7.97;;;;;;;12.18;100.00;101647.81;5196992;28;20030;-76
2021/11/19 10:52:04;;;;;;;11.88;7.75;;;;;;;12.12;100.00;101640.97;5180640;28;20025;-76
2021/11/19 10:54:59;;;;;;;11.27;7.10;;;;;;;12.04;100.00;101656.03;5179560;28;20121;-76
2021/11/19 10:57:57;;;;;;;9.18;6.68;;;;;;;12.05;100.00;101655.13;5179094;28;20145;-76
2021/11/19 11:00:55;;;;;;;8.48;6.47;;;;;;;12.09;100.00;101645.44;5185112;28;20220;-76
2021/11/19 11:03:55;;;;;;;11.48;7.32;;;;;;;12.10;100.00;101640.16;5180828;28;20041;-76
2021/11/19 11:06:42;;;;;;;11.40;7.32;;;;;;;12.09;100.00;101646.28;5156595;28;20042;-76
2021/11/19 11:09:20;;;;;;;10.93;7.38;;;;;;;12.07;100.00;101648.09;5172014;28;20026;-76
2021/11/19 11:11:58;;;;;;;11.40;7.78;;;;;;;12.12;100.00;101648.81;5172530;28;20115;-76
2021/11/19 11:14:31;;;;;;;13.35;8.05;;;;;;;12.17;100.00;101641.75;5183827;28;20052;-76
2021/11/19 11:17:24;;;;;;;10.60;7.28;;;;;;;12.23;100.00;101644.19;5180811;28;20026;-76
2021/11/19 11:19:59;;;;;;;12.77;7.32;;;;;;;12.21;100.00;101647.75;5187921;28;20029;-77
2021/11/19 11:22:35;;;;;;;12.32;8.07;;;;;;;12.26;100.00;101651.97;5181944;28;20048;-77
2021/11/19 11:25:27;;;;;;;12.35;8.30;;;;;;;12.17;100.00;101652.22;5188485;28;20034;-77
2021/11/19 11:28:19;;;;;;;11.35;7.00;;;;;;;12.27;100.00;101651.06;5187618;28;20029;-77
2021/11/19 11:30:57;;;;;;;10.95;7.47;;;;;;;12.21;100.00;101647.75;5181856;28;20411;-77
2021/11/19 11:33:33;;;;;;;13.50;7.97;;;;;;;12.26;100.00;101644.13;5187973;28;20037;-77
2021/11/19 11:36:08;;;;;;;13.88;8.02;;;;;;;12.31;100.00;101639.59;5206034;22;20044;-79
2021/11/19 11:39:04;;;;;;;12.38;8.05;;;;;;;12.38;100.00;101643.81;5195393;28;20030;-79
2021/11/19 11:41:58;;;;;;;12.00;7.85;;;;;;;12.32;100.00;101643.94;5188322;28;20030;-82
2021/11/19 11:44:50;;;;;;;11.85;7.78;;;;;;;12.41;100.00;101640.22;5182890;28;20077;-82